createdAt,value
2022-08-09T00:00:36.853Z,4.40
2022-08-09T00:04:03.773Z,3.90
2022-08-09T00:07:21.831Z,4.30
2022-08-09T00:10:24.951Z,3.70
2022-08-09T00:13:41.082Z,3.70
2022-08-09T00:17:07.811Z,3.40
2022-08-09T00:20:34.750Z,3.70
2022-08-09T00:23:55.773Z,3.70
2022-08-09T00:27:18.073Z,4.00
2022-08-09T00:30:35.841Z,3.50
2022-08-09T00:34:24.499Z,3.70
2022-08-09T00:37:30.190Z,3.70
2022-08-09T00:40:17.729Z,3.90
2022-08-09T00:44:13.717Z,4.10
2022-08-09T00:45:36.334Z,4.20
2022-08-09T00:48:05.528Z,3.90
2022-08-09T00:50:34.278Z,4.60
2022-08-09T00:53:10.300Z,4.10
2022-08-09T00:56:04.475Z,4.80
2022-08-09T00:58:30.965Z,4.70
2022-08-09T01:01:00.269Z,4.80
2022-08-09T01:03:55.027Z,4.00
2022-08-09T01:06:54.263Z,4.30
2022-08-09T01:09:39.704Z,4.60
2022-08-09T01:12:42.983Z,4.90
2022-08-09T01:15:17.832Z,4.10
2022-08-09T01:18:04.965Z,3.60
2022-08-09T01:21:13.900Z,3.90
2022-08-09T01:24:03.432Z,3.40
2022-08-09T01:26:53.568Z,3.30
2022-08-09T01:29:55.220Z,3.10
2022-08-09T01:32:32.141Z,3.70
2022-08-09T01:35:07.126Z,3.10
2022-08-09T01:38:10.455Z,2.80
2022-08-09T01:40:45.103Z,3.00
2022-08-09T01:43:24.017Z,3.20
2022-08-09T01:45:54.649Z,3.40
2022-08-09T01:48:29.828Z,3.50
2022-08-09T01:51:02.629Z,3.40
2022-08-09T01:53:40.969Z,2.90
2022-08-09T01:56:12.335Z,2.90
2022-08-09T01:58:43.707Z,3.20
2022-08-09T02:01:18.810Z,2.90
2022-08-09T02:03:49.137Z,2.60
2022-08-09T02:06:39.390Z,2.90
2022-08-09T02:09:15.748Z,3.20
2022-08-09T02:11:45.690Z,2.90
2022-08-09T02:14:25.557Z,2.80
2022-08-09T02:17:14.529Z,2.20
2022-08-09T02:19:45.077Z,2.30
2022-08-09T02:22:31.631Z,3.30
2022-08-09T02:25:15.343Z,2.50
2022-08-09T02:28:00.435Z,2.60
2022-08-09T02:30:41.376Z,2.60
2022-08-09T02:33:16.900Z,2.90
2022-08-09T02:36:03.369Z,2.60
2022-08-09T02:38:40.475Z,2.50
2022-08-09T02:41:25.371Z,2.50
2022-08-09T02:43:58.008Z,2.60
2022-08-09T02:46:30.844Z,2.80
2022-08-09T02:49:03.036Z,2.50
2022-08-09T02:51:40.225Z,2.90
2022-08-09T02:54:14.133Z,2.50
2022-08-09T02:56:51.016Z,2.80
2022-08-09T02:59:26.303Z,2.40
2022-08-09T03:02:07.189Z,2.50
2022-08-09T03:04:41.825Z,2.40
2022-08-09T03:07:14.011Z,2.20
2022-08-09T03:09:54.381Z,2.30
2022-08-09T03:12:26.141Z,2.60
2022-08-09T03:14:57.078Z,2.40
2022-08-09T03:17:27.569Z,2.20
2022-08-09T03:20:03.167Z,2.30
2022-08-09T03:22:41.707Z,2.50
2022-08-09T03:25:21.816Z,1.90
2022-08-09T03:28:03.329Z,2.10
2022-08-09T03:30:34.015Z,1.80
2022-08-09T03:33:12.817Z,1.70
2022-08-09T03:36:14.096Z,2.10
2022-08-09T03:38:41.928Z,2.50
2022-08-09T03:41:14.621Z,2.20
2022-08-09T03:44:02.861Z,2.60
2022-08-09T03:46:33.538Z,2.50
2022-08-09T03:49:04.229Z,2.50
2022-08-09T03:51:55.062Z,2.50
2022-08-09T03:54:32.807Z,2.20
2022-08-09T03:57:18.416Z,2.30
2022-08-09T03:59:53.389Z,2.70
2022-08-09T04:02:28.007Z,3.10
2022-08-09T04:04:59.310Z,2.60
2022-08-09T04:07:47.762Z,2.60
2022-08-09T04:10:20.421Z,2.40
2022-08-09T04:12:51.353Z,2.20
2022-08-09T04:15:40.455Z,2.50
2022-08-09T04:18:18.004Z,2.70
2022-08-09T04:20:47.995Z,2.80
2022-08-09T04:23:16.765Z,2.40
2022-08-09T04:25:51.689Z,2.40
2022-08-09T04:28:33.395Z,2.10
2022-08-09T04:31:09.243Z,2.10
2022-08-09T04:33:52.527Z,2.10
2022-08-09T04:36:24.503Z,2.30
2022-08-09T04:38:54.327Z,2.40
2022-08-09T04:41:23.870Z,2.80
2022-08-09T04:44:05.043Z,2.60
2022-08-09T04:46:37.912Z,3.30
2022-08-09T04:49:52.422Z,3.80
2022-08-09T04:52:12.139Z,3.90
2022-08-09T04:54:48.122Z,4.50
2022-08-09T04:57:16.089Z,4.60
2022-08-09T04:59:54.583Z,4.60
2022-08-09T05:02:25.028Z,4.40
2022-08-09T05:04:58.748Z,3.80
2022-08-09T05:07:37.952Z,3.80
2022-08-09T05:10:06.892Z,3.50
2022-08-09T05:12:36.475Z,4.50
2022-08-09T05:15:11.853Z,4.50
2022-08-09T05:18:37.542Z,4.30
2022-08-09T05:20:43.664Z,3.90
2022-08-09T05:23:57.134Z,3.90
2022-08-09T05:26:00.642Z,4.00
2022-08-09T05:28:28.769Z,3.60
2022-08-09T05:30:57.688Z,4.70
2022-08-09T05:33:26.491Z,4.40
2022-08-09T05:36:01.791Z,5.20
2022-08-09T05:38:31.660Z,4.80
2022-08-09T05:40:59.680Z,5.00
2022-08-09T05:43:29.027Z,4.80
2022-08-09T05:45:59.950Z,5.30
2022-08-09T05:48:33.199Z,4.80
2022-08-09T05:51:42.974Z,5.40
2022-08-09T05:54:22.933Z,5.40
2022-08-09T06:01:06.666Z,5.70
2022-08-09T06:04:34.585Z,5.10
2022-08-09T06:14:30.440Z,4.70
2022-08-09T06:16:58.714Z,5.30
2022-08-09T06:19:39.974Z,4.90
2022-08-09T06:22:14.946Z,5.50
2022-08-09T06:24:45.190Z,5.40
2022-08-09T06:27:19.287Z,5.80
2022-08-09T06:29:58.604Z,5.30
2022-08-09T06:33:00.825Z,5.10
2022-08-09T06:36:17.911Z,4.90
2022-08-09T06:38:50.529Z,4.80
2022-08-09T06:46:07.092Z,5.40
2022-08-09T07:09:08.109Z,6.40
2022-08-09T07:19:39.978Z,4.80
2022-08-09T07:26:02.792Z,5.10
2022-08-09T07:43:16.636Z,4.20
2022-08-09T08:01:06.285Z,5.20
2022-08-09T08:12:11.195Z,4.70
2022-08-09T08:14:53.089Z,4.90
2022-08-09T08:18:16.422Z,4.30
2022-08-09T08:21:29.975Z,4.10
2022-08-09T08:52:04.196Z,3.20
2022-08-09T09:11:17.842Z,3.40
2022-08-09T09:18:29.240Z,3.20
2022-08-09T09:29:04.151Z,3.50
2022-08-09T09:33:13.966Z,4.30
2022-08-09T09:36:33.730Z,4.20
2022-08-09T09:40:02.694Z,3.80
2022-08-09T09:55:28.048Z,3.80
2022-08-09T09:58:47.599Z,3.70
2022-08-09T10:08:27.878Z,4.00
2022-08-09T10:54:24.593Z,4.00
2022-08-09T10:58:25.546Z,4.30
2022-08-09T11:08:30.215Z,4.30
2022-08-09T11:15:51.021Z,4.90
2022-08-09T11:18:48.420Z,4.30
2022-08-09T11:25:18.811Z,4.20
2022-08-09T11:28:54.312Z,4.20
2022-08-09T11:32:29.138Z,4.40
2022-08-09T11:35:50.066Z,4.30
2022-08-09T11:42:41.906Z,4.70
2022-08-09T11:46:32.925Z,5.20
2022-08-09T11:50:56.478Z,4.60
2022-08-09T11:54:01.016Z,5.00
2022-08-09T11:57:28.422Z,4.90
2022-08-09T12:04:28.722Z,4.90
2022-08-09T12:08:05.653Z,5.90
2022-08-09T12:11:21.113Z,5.10
2022-08-09T12:17:58.263Z,5.20
2022-08-09T12:21:28.578Z,4.50
2022-08-09T12:25:05.588Z,4.60
2022-08-09T12:28:58.115Z,4.80
2022-08-09T12:35:41.028Z,4.80
2022-08-09T12:38:56.238Z,4.80
2022-08-09T12:49:05.169Z,4.30
2022-08-09T12:56:11.902Z,4.30
2022-08-09T13:00:02.807Z,4.10
2022-08-09T13:03:54.086Z,3.70
2022-08-09T13:06:59.069Z,4.10
2022-08-09T13:30:50.786Z,3.70
2022-08-09T13:41:58.213Z,4.20
2022-08-09T13:45:14.106Z,3.30
2022-08-09T14:09:37.061Z,3.90
2022-08-09T14:12:31.894Z,3.40
2022-08-09T14:19:33.482Z,4.70
2022-08-09T14:36:39.798Z,2.70
2022-08-09T14:48:12.474Z,2.50
2022-08-09T14:51:42.259Z,2.10
2022-08-09T14:55:14.351Z,2.00
2022-08-09T14:58:34.502Z,2.20
2022-08-09T15:01:32.663Z,1.90
2022-08-09T15:04:10.446Z,2.10
2022-08-09T15:07:21.176Z,2.20
2022-08-09T15:10:34.920Z,2.00
2022-08-09T15:13:26.802Z,2.10
2022-08-09T15:16:54.687Z,2.20
2022-08-09T15:19:59.359Z,2.00
2022-08-09T15:22:47.335Z,2.40
2022-08-09T15:25:45.092Z,2.60
2022-08-09T15:30:57.552Z,2.80
2022-08-09T15:32:39.221Z,2.90
2022-08-09T15:35:43.384Z,3.10
2022-08-09T15:38:21.681Z,3.20
2022-08-09T15:41:11.858Z,2.80
2022-08-09T15:44:10.491Z,3.20
2022-08-09T15:46:43.116Z,2.90
2022-08-09T15:50:00.661Z,2.70
2022-08-09T15:52:37.042Z,2.30
2022-08-09T15:55:26.544Z,2.60
2022-08-09T15:57:56.339Z,2.80
2022-08-09T16:00:30.470Z,2.80
2022-08-09T16:02:59.107Z,2.80
2022-08-09T16:05:47.456Z,2.80
2022-08-09T16:08:30.589Z,2.60
2022-08-09T16:11:02.182Z,3.30
2022-08-09T16:14:06.094Z,3.40
2022-08-09T16:16:28.219Z,3.00
2022-08-09T16:18:57.130Z,2.80
2022-08-09T16:21:26.412Z,3.00
2022-08-09T16:24:02.235Z,3.20
2022-08-09T16:26:50.740Z,3.20
2022-08-09T16:29:20.177Z,2.60
2022-08-09T16:32:18.417Z,2.00
2022-08-09T16:34:54.962Z,2.70
2022-08-09T16:37:54.993Z,3.10
2022-08-09T16:40:30.005Z,2.40
2022-08-09T16:43:02.994Z,2.70
2022-08-09T16:45:32.069Z,2.00
2022-08-09T16:48:38.469Z,2.70
2022-08-09T16:50:49.656Z,2.20
2022-08-09T16:53:33.940Z,2.20
2022-08-09T16:56:09.143Z,2.50
2022-08-09T16:58:49.702Z,2.30
2022-08-09T17:01:19.527Z,3.30
2022-08-09T17:03:54.304Z,2.70
2022-08-09T17:06:31.351Z,4.20
2022-08-09T17:09:16.090Z,4.10
2022-08-09T17:11:52.633Z,3.00
2022-08-09T17:14:27.496Z,2.80
2022-08-09T17:17:00.179Z,3.70
2022-08-09T17:19:47.424Z,3.50
2022-08-09T17:22:23.701Z,3.70
2022-08-09T17:25:10.306Z,3.50
2022-08-09T17:27:48.930Z,3.60
2022-08-09T17:30:25.825Z,3.50
2022-08-09T17:33:00.695Z,3.10
2022-08-09T17:35:35.802Z,2.90
2022-08-09T17:40:57.559Z,3.40
2022-08-09T17:43:34.798Z,3.10
2022-08-09T17:46:08.661Z,2.60
2022-08-09T17:48:51.709Z,3.00
2022-08-09T17:51:21.621Z,2.70
2022-08-09T17:53:54.756Z,2.60
2022-08-09T17:56:29.307Z,2.70
2022-08-09T17:59:11.298Z,3.10
2022-08-09T18:02:06.709Z,2.20
2022-08-09T18:04:29.428Z,2.00
2022-08-09T18:06:59.081Z,2.20
2022-08-09T18:09:35.836Z,2.20
2022-08-09T18:12:17.583Z,2.00
2022-08-09T18:14:55.193Z,2.70
2022-08-09T18:18:43.186Z,2.60
2022-08-09T18:21:28.746Z,3.30
2022-08-09T18:24:11.587Z,3.00
2022-08-09T18:26:46.321Z,2.80
2022-08-09T18:30:39.093Z,2.60
2022-08-09T18:32:04.996Z,2.60
2022-08-09T18:34:35.632Z,2.90
2022-08-09T18:37:04.163Z,2.90
2022-08-09T18:39:33.250Z,2.20
2022-08-09T18:42:08.966Z,2.60
2022-08-09T18:44:37.132Z,2.20
2022-08-09T18:47:15.887Z,2.40
2022-08-09T18:49:47.010Z,2.40
2022-08-09T18:52:24.981Z,2.60
2022-08-09T18:55:04.959Z,2.20
2022-08-09T18:57:38.491Z,2.20
2022-08-09T19:00:16.774Z,2.90
2022-08-09T19:02:51.051Z,2.20
2022-08-09T19:05:48.767Z,2.50
2022-08-09T19:08:14.207Z,2.40
2022-08-09T19:10:47.887Z,2.40
2022-08-09T19:13:22.244Z,2.00
2022-08-09T19:16:03.962Z,2.30
2022-08-09T19:18:37.655Z,2.50
2022-08-09T19:21:10.680Z,2.00
2022-08-09T19:24:39.668Z,2.30
2022-08-09T19:26:35.287Z,2.20
2022-08-09T19:29:18.433Z,2.00
2022-08-09T19:31:53.830Z,1.80
2022-08-09T19:34:35.289Z,2.00
2022-08-09T19:37:07.364Z,2.40
2022-08-09T19:40:04.382Z,2.40
2022-08-09T19:42:33.822Z,2.00
2022-08-09T19:45:03.077Z,2.20
2022-08-09T19:47:31.450Z,2.00
2022-08-09T19:50:51.422Z,1.90
2022-08-09T19:53:07.263Z,2.90
2022-08-09T19:56:02.792Z,2.80
2022-08-09T19:58:33.183Z,3.30
2022-08-09T20:01:01.580Z,3.30
2022-08-09T20:07:12.146Z,3.40
2022-08-09T20:09:57.543Z,4.00
2022-08-09T20:12:30.157Z,4.00
2022-08-09T20:16:31.917Z,4.90
2022-08-09T20:17:55.065Z,5.30
2022-08-09T20:20:24.963Z,5.30
2022-08-09T20:22:56.367Z,4.60
2022-08-09T20:25:25.329Z,5.30
2022-08-09T20:27:53.592Z,5.30
2022-08-09T20:30:25.076Z,5.60
2022-08-09T20:32:53.901Z,6.40
2022-08-09T20:36:04.824Z,4.20
2022-08-09T20:40:15.152Z,5.00
2022-08-09T20:43:18.625Z,4.60
2022-08-09T20:50:47.765Z,4.10
2022-08-09T20:54:00.108Z,4.00
2022-08-09T20:57:10.157Z,4.50
2022-08-09T21:00:20.606Z,4.70
2022-08-09T21:03:39.496Z,4.40
2022-08-09T21:10:25.181Z,5.50
2022-08-09T21:13:59.043Z,7.10
2022-08-09T21:18:21.119Z,6.50
2022-08-09T21:20:35.406Z,6.10
2022-08-09T21:23:51.662Z,6.60
2022-08-09T21:27:51.568Z,6.10
2022-08-09T21:34:20.969Z,5.60
2022-08-09T21:37:40.557Z,5.50
2022-08-09T21:40:53.294Z,5.40
2022-08-09T21:43:56.052Z,4.90
2022-08-09T21:46:11.336Z,4.50
2022-08-09T21:48:49.294Z,4.70
2022-08-09T21:51:43.812Z,3.90
2022-08-09T21:54:12.251Z,4.00
2022-08-09T21:56:44.850Z,4.10
2022-08-09T21:59:25.661Z,4.90
2022-08-09T22:01:59.046Z,4.80
2022-08-09T22:04:54.975Z,4.40
2022-08-09T22:07:23.324Z,4.40
2022-08-09T22:10:06.999Z,4.50
2022-08-09T22:12:40.393Z,5.10
2022-08-09T22:15:18.375Z,4.90
2022-08-09T22:17:48.955Z,5.10
2022-08-09T22:20:27.231Z,5.90
2022-08-09T22:22:55.649Z,5.70
2022-08-09T22:26:12.233Z,7.10
2022-08-09T22:28:11.740Z,7.20
2022-08-09T22:30:48.536Z,7.30
2022-08-09T22:36:01.682Z,8.10
2022-08-09T22:38:31.770Z,9.80
2022-08-09T22:41:01.174Z,10.00
2022-08-09T22:44:02.145Z,11.30
2022-08-09T22:48:14.403Z,9.80
2022-08-09T22:49:10.216Z,9.30
2022-08-09T22:51:49.610Z,10.40
2022-08-09T22:54:29.381Z,10.80
2022-08-09T22:56:58.845Z,8.60
2022-08-09T22:59:57.272Z,9.10
2022-08-09T23:02:20.033Z,8.80
2022-08-09T23:04:53.826Z,7.00
2022-08-09T23:08:22.013Z,7.90
2022-08-09T23:10:29.449Z,7.80
2022-08-09T23:12:58.277Z,8.40
2022-08-09T23:15:28.050Z,8.40
2022-08-09T23:17:56.811Z,9.50
2022-08-09T23:20:26.432Z,8.70
2022-08-09T23:22:54.429Z,9.60
2022-08-09T23:25:22.345Z,8.40
2022-08-09T23:27:57.430Z,8.60
2022-08-09T23:30:38.162Z,8.50
2022-08-09T23:33:06.101Z,8.10
2022-08-09T23:36:05.833Z,9.90
2022-08-09T23:38:22.311Z,9.80
2022-08-09T23:40:51.601Z,9.70
2022-08-09T23:43:20.696Z,9.40
2022-08-09T23:45:49.135Z,9.50
2022-08-09T23:48:18.223Z,10.80
2022-08-09T23:50:46.746Z,10.00
2022-08-09T23:53:14.822Z,10.70
2022-08-09T23:55:49.558Z,10.80
2022-08-09T23:58:26.045Z,10.10
